Time;durP1;ratioP1;P1;durP2;ratioP2;P2;SDS_P1;SDS_P2;PMS_P1;PMS_P2;Temp;Humidity;BMP_temperature;BMP_pressure;BME280_temperature;BME280_humidity;BME280_pressure;Samples;Min_cycle;Max_cycle;Signal;HPM_P1;HPM_P2
2024/04/26 00:01:11;;;;;;;24.13;11.98;;;;;;;7.81;100.00;96915.16;5403104;26;20003;-80
2024/04/26 00:03:36;;;;;;;27.70;12.27;;;;;;;7.87;100.00;96925.41;5430250;26;20002;-81
2024/04/26 00:06:06;;;;;;;28.77;12.48;;;;;;;8.03;100.00;96943.94;5431620;26;19999;-78
2024/04/26 00:08:31;;;;;;;26.38;12.20;;;;;;;8.01;100.00;96933.41;5422623;26;20004;-77
2024/04/26 00:10:57;;;;;;;29.85;12.60;;;;;;;7.73;100.00;96912.06;5419242;26;19994;-77
2024/04/26 00:13:23;;;;;;;28.98;12.07;;;;;;;7.85;100.00;96929.97;5413714;26;19996;-78
2024/04/26 00:15:48;;;;;;;29.92;11.95;;;;;;;7.81;100.00;96925.81;5407037;26;19996;-78
2024/04/26 00:18:14;;;;;;;29.77;11.55;;;;;;;7.81;100.00;96936.44;5423785;26;20338;-78
2024/04/26 00:20:40;;;;;;;23.10;10.27;;;;;;;7.73;100.00;96917.41;5421817;26;20010;-78
2024/04/26 00:23:05;;;;;;;27.65;8.25;;;;;;;7.61;100.00;96939.44;5431221;26;19999;-77
2024/04/26 00:25:31;;;;;;;34.05;8.93;;;;;;;7.53;100.00;96931.06;5480072;26;19999;-77
2024/04/26 00:27:56;;;;;;;52.33;8.30;;;;;;;7.49;100.00;96937.50;5505797;26;20001;-77
2024/04/26 00:30:22;;;;;;;42.97;8.82;;;;;;;7.48;100.00;96927.81;5474543;26;19998;-78
2024/04/26 00:32:47;;;;;;;121.40;9.90;;;;;;;7.48;100.00;96934.00;5490102;26;20325;-78
2024/04/26 00:35:13;;;;;;;42.03;8.35;;;;;;;7.55;100.00;96935.34;5502558;26;20386;-78
2024/04/26 00:37:39;;;;;;;48.42;8.50;;;;;;;7.58;100.00;96947.59;5497535;26;20053;-77
2024/04/26 00:40:05;;;;;;;112.13;12.40;;;;;;;7.66;100.00;96948.00;5504515;26;19993;-77
2024/04/26 00:42:30;;;;;;;95.65;13.02;;;;;;;7.57;100.00;96943.22;5510699;26;20318;-77
2024/04/26 00:44:56;;;;;;;49.50;10.93;;;;;;;7.46;100.00;96951.84;5444061;26;19994;-77
2024/04/26 00:47:22;;;;;;;37.78;10.88;;;;;;;7.46;100.00;96951.84;5467669;26;20008;-77
2024/04/26 00:49:48;;;;;;;81.47;12.15;;;;;;;7.51;100.00;96948.91;5501679;26;20004;-77
2024/04/26 00:52:14;;;;;;;29.55;11.05;;;;;;;7.55;100.00;96955.78;5474157;25;19994;-77
2024/04/26 00:54:41;;;;;;;45.20;11.82;;;;;;;7.56;100.00;96960.16;5512285;26;20009;-78
2024/04/26 00:57:07;;;;;;;51.20;11.55;;;;;;;7.56;100.00;96955.69;5457431;26;19993;-78
2024/04/26 00:59:33;;;;;;;60.38;11.60;;;;;;;7.51;100.00;96963.06;5451361;26;20061;-77
2024/04/26 01:01:59;;;;;;;35.17;11.93;;;;;;;7.52;100.00;96966.59;5454218;26;20006;-78
2024/04/26 01:04:25;;;;;;;33.28;10.85;;;;;;;7.55;100.00;96961.09;5492956;26;20468;-78
2024/04/26 01:06:50;;;;;;;41.92;12.27;;;;;;;7.46;100.00;96964.31;5493835;26;20335;-77
2024/04/26 01:09:17;;;;;;;166.18;12.93;;;;;;;7.53;100.00;96960.34;5490405;26;19997;-78
2024/04/26 01:11:43;;;;;;;55.30;11.02;;;;;;;7.52;100.00;96971.91;5456190;26;20318;-76
2024/04/26 01:14:08;;;;;;;42.63;9.43;;;;;;;7.50;100.00;96979.16;5516970;26;20043;-77
2024/04/26 01:16:34;;;;;;;25.08;8.80;;;;;;;7.52;100.00;96986.09;5446081;26;19994;-78
2024/04/26 01:18:59;;;;;;;15.95;6.22;;;;;;;7.38;100.00;96990.50;5503259;26;19985;-77
2024/04/26 01:21:25;;;;;;;21.58;7.13;;;;;;;7.31;100.00;96984.69;5532896;25;19986;-77
2024/04/26 01:23:52;;;;;;;12.35;6.10;;;;;;;7.30;100.00;96992.72;5505093;26;20055;-77
2024/04/26 01:26:17;;;;;;;15.20;7.03;;;;;;;7.31;100.00;96994.47;5554572;25;19989;-78
2024/04/26 01:28:45;;;;;;;17.75;7.13;;;;;;;7.38;100.00;96996.66;5496399;26;20005;-77
2024/04/26 01:31:11;;;;;;;48.20;9.85;;;;;;;7.46;100.00;96993.56;5449635;26;20001;-77
2024/04/26 01:33:37;;;;;;;140.98;14.38;;;;;;;7.56;100.00;97003.59;5474707;26;20010;-77
2024/04/26 01:36:02;;;;;;;65.43;10.82;;;;;;;7.57;100.00;97013.28;5458523;26;20001;-77
2024/04/26 01:38:28;;;;;;;33.42;10.70;;;;;;;7.50;100.00;97016.41;5455015;26;20450;-77
2024/04/26 01:40:53;;;;;;;48.53;11.07;;;;;;;7.46;100.00;97005.06;5456799;26;20039;-78
2024/04/26 01:43:19;;;;;;;47.67;10.65;;;;;;;7.56;100.00;97016.03;5458987;26;19994;-78
2024/04/26 01:45:45;;;;;;;34.28;11.00;;;;;;;7.54;100.00;97007.28;5505916;26;19990;-77
2024/04/26 01:48:10;;;;;;;52.90;9.70;;;;;;;7.58;100.00;97011.47;5485515;26;20005;-77
2024/04/26 01:50:37;;;;;;;29.40;9.63;;;;;;;7.56;100.00;97013.38;5499122;26;20321;-76
2024/04/26 01:53:03;;;;;;;28.00;10.43;;;;;;;7.48;100.00;97013.81;5443815;26;19994;-76
2024/04/26 01:55:28;;;;;;;43.53;10.18;;;;;;;7.56;100.00;97032.00;5491550;26;20006;-78
2024/04/26 01:57:54;;;;;;;53.75;10.25;;;;;;;7.50;100.00;97027.03;5482208;26;20317;-77
2024/04/26 02:00:19;;;;;;;40.90;9.75;;;;;;;7.58;100.00;97038.09;5441137;26;19990;-76
2024/04/26 02:02:45;;;;;;;68.50;11.27;;;;;;;7.54;100.00;97032.06;5517478;26;20433;-77
2024/04/26 02:05:11;;;;;;;152.55;14.00;;;;;;;7.56;100.00;97046.16;5533536;26;19989;-77
2024/04/26 02:07:40;;;;;;;165.32;13.55;;;;;;;7.37;100.00;97034.88;5458291;26;19995;-77
2024/04/26 02:10:06;;;;;;;186.43;13.68;;;;;;;7.34;100.00;97047.50;5529279;26;19997;-76
2024/04/26 02:12:31;;;;;;;152.45;14.38;;;;;;;7.39;100.00;97056.06;5455591;26;19994;-77
2024/04/26 02:14:57;;;;;;;72.25;12.55;;;;;;;7.47;100.00;97060.00;5488025;26;20018;-77
2024/04/26 02:17:24;;;;;;;77.38;12.70;;;;;;;7.45;100.00;97053.03;5455958;26;19989;-77
2024/04/26 02:19:49;;;;;;;55.53;14.57;;;;;;;7.44;100.00;97059.31;5470145;26;20162;-77
2024/04/26 02:22:15;;;;;;;94.00;13.55;;;;;;;7.56;100.00;97079.91;5496355;26;20006;-77
2024/04/26 02:24:41;;;;;;;114.00;13.60;;;;;;;7.57;100.00;97079.81;5485153;26;19994;-77
2024/04/26 02:27:06;;;;;;;31.42;11.40;;;;;;;7.52;100.00;97086.34;5501004;26;20005;-77
2024/04/26 02:29:32;;;;;;;30.30;10.98;;;;;;;7.51;100.00;97087.28;5493449;26;20017;-77
2024/04/26 02:31:57;;;;;;;30.45;10.85;;;;;;;7.49;100.00;97083.84;5495103;26;20001;-77
2024/04/26 02:34:24;;;;;;;22.65;10.00;;;;;;;7.61;100.00;97094.66;5524017;25;20421;-77
2024/04/26 02:36:50;;;;;;;39.97;9.90;;;;;;;7.63;100.00;97091.88;5449913;26;20007;-77
2024/04/26 02:39:15;;;;;;;28.25;8.13;;;;;;;7.53;100.00;97091.59;5466779;26;20005;-77
2024/04/26 02:41:44;;;;;;;51.13;10.85;;;;;;;7.36;100.00;97094.34;5463562;26;20020;-77
2024/04/26 02:44:09;;;;;;;49.95;9.65;;;;;;;7.34;100.00;97090.91;5456180;26;20009;-77
2024/04/26 02:46:37;;;;;;;25.83;9.65;;;;;;;7.38;100.00;97099.59;5461829;26;19997;-77
2024/04/26 02:49:09;;;;;;;51.38;10.38;;;;;;;7.48;100.00;97101.63;5463275;25;20012;-77
2024/04/26 02:51:34;;;;;;;23.40;9.95;;;;;;;7.46;100.00;97107.97;5524518;26;20360;-78
2024/04/26 02:54:00;;;;;;;28.98;8.73;;;;;;;7.31;100.00;97100.84;5452070;26;20002;-76
2024/04/26 02:56:26;;;;;;;30.70;9.20;;;;;;;7.35;100.00;97116.53;5482806;26;19990;-77
2024/04/26 02:58:55;;;;;;;27.70;9.45;;;;;;;7.36;100.00;97118.28;5460386;26;19989;-78
2024/04/26 03:01:20;;;;;;;24.30;9.57;;;;;;;7.38;100.00;97112.88;5521700;26;20083;-76
2024/04/26 03:03:46;;;;;;;23.25;9.20;;;;;;;7.38;100.00;97102.25;5490644;26;20005;-77
2024/04/26 03:06:13;;;;;;;31.60;9.25;;;;;;;7.45;100.00;97119.56;5493817;26;19998;-78
2024/04/26 03:08:40;;;;;;;17.65;8.50;;;;;;;7.43;100.00;97116.13;5486860;26;20067;-77
2024/04/26 03:11:07;;;;;;;31.10;8.38;;;;;;;7.40;100.00;97134.94;5457137;26;20001;-76
2024/04/26 03:13:34;;;;;;;29.30;7.55;;;;;;;7.39;100.00;97136.72;5518395;25;20065;-75
2024/04/26 03:16:00;;;;;;;29.67;8.77;;;;;;;7.29;100.00;97137.34;5523290;25;19993;-76
2024/04/26 03:18:26;;;;;;;22.85;8.15;;;;;;;7.24;100.00;97140.25;5494194;26;19993;-76
2024/04/26 03:20:52;;;;;;;28.10;8.27;;;;;;;7.26;100.00;97137.50;5516661;26;20012;-77
2024/04/26 03:23:24;;;;;;;23.88;8.75;;;;;;;7.19;100.00;97138.78;5457913;26;20001;-75
2024/04/26 03:25:49;;;;;;;17.45;8.50;;;;;;;7.18;100.00;97139.72;5447670;26;20063;-76
2024/04/26 03:28:24;;;;;;;14.93;6.68;;;;;;;7.02;100.00;97121.06;5500570;26;19994;-76
2024/04/26 03:30:50;;;;;;;13.57;6.30;;;;;;;7.06;100.00;97139.47;5525499;25;19998;-77
2024/04/26 03:33:16;;;;;;;13.38;6.22;;;;;;;7.02;100.00;97143.22;5463324;26;20008;-77
2024/04/26 03:35:42;;;;;;;16.63;7.53;;;;;;;7.02;100.00;97145.88;5458340;26;19998;-77
2024/04/26 03:38:08;;;;;;;27.50;8.52;;;;;;;7.15;100.00;97155.84;5474675;26;20062;-77
2024/04/26 03:40:33;;;;;;;15.68;7.10;;;;;;;7.25;100.00;97159.72;5510715;26;19990;-76
2024/04/26 03:43:01;;;;;;;18.73;6.82;;;;;;;7.15;100.00;97154.03;5515739;26;19993;-76
2024/04/26 03:45:27;;;;;;;16.63;6.72;;;;;;;7.19;100.00;97165.38;5533717;26;19990;-77
2024/04/26 03:47:52;;;;;;;17.70;8.20;;;;;;;7.13;100.00;97160.41;5459462;26;20000;-76
2024/04/26 03:50:18;;;;;;;16.40;8.25;;;;;;;7.15;100.00;97154.03;5511535;25;20013;-76
2024/04/26 03:52:47;;;;;;;17.98;8.70;;;;;;;7.27;100.00;97161.34;5459406;26;20005;-77
2024/04/26 03:55:12;;;;;;;26.45;9.15;;;;;;;7.35;100.00;97171.59;5454315;26;19998;-76
2024/04/26 03:57:38;;;;;;;27.95;10.35;;;;;;;7.29;100.00;97166.59;5474780;26;20004;-77
2024/04/26 04:00:04;;;;;;;24.15;9.50;;;;;;;7.33;100.00;97173.44;5512934;25;19998;-77
2024/04/26 04:02:41;;;;;;;23.58;8.68;;;;;;;7.28;100.00;97159.56;5496986;26;20009;-78
2024/04/26 04:05:41;;;;;;;19.58;8.18;;;;;;;7.32;100.00;97150.47;5449440;26;20004;-77
2024/04/26 04:11:27;;;;;;;18.83;7.82;;;;;;;7.42;100.00;97149.84;5426286;26;19994;-78
2024/04/26 04:13:52;;;;;;;21.35;7.97;;;;;;;7.52;100.00;97152.88;5454912;26;20005;-78
2024/04/26 04:16:23;;;;;;;19.40;9.95;;;;;;;7.49;100.00;97161.03;5460568;26;19994;-78
2024/04/26 04:18:49;;;;;;;15.40;8.25;;;;;;;7.71;100.00;97188.16;5460435;26;20090;-79
2024/04/26 04:21:16;;;;;;;12.15;6.45;;;;;;;7.79;100.00;97193.03;5512427;25;20000;-79
2024/04/26 04:23:41;;;;;;;9.63;5.50;;;;;;;7.69;100.00;97183.88;5448877;26;20005;-79
2024/04/26 04:26:07;;;;;;;11.77;6.40;;;;;;;7.62;100.00;97186.00;5520308;25;20061;-78
2024/04/26 04:28:57;;;;;;;;;;;;;;;;;;;;;
2024/04/26 04:31:27;;;;;;;11.73;6.43;;;;;;;7.69;100.00;97197.19;5487617;26;19994;-79
2024/04/26 04:33:53;;;;;;;17.38;8.35;;;;;;;7.76;100.00;97194.06;5463681;26;20005;-78
2024/04/26 04:36:19;;;;;;;13.88;7.68;;;;;;;7.88;100.00;97188.03;5466279;26;20444;-77
2024/04/26 04:38:44;;;;;;;16.13;7.65;;;;;;;8.03;100.00;97199.63;5453853;26;20433;-78
2024/04/26 04:41:11;;;;;;;15.95;8.05;;;;;;;8.19;100.00;97201.31;5486411;26;20012;-83
2024/04/26 04:43:36;;;;;;;71.07;37.53;;;;;;;8.30;100.00;97194.53;5513076;25;20425;-77
2024/04/26 04:46:02;;;;;;;23.98;11.90;;;;;;;8.36;100.00;97196.84;5490556;25;19994;-74
2024/04/26 04:48:28;;;;;;;13.30;7.18;;;;;;;8.07;100.00;97203.81;5444638;26;20008;-72
2024/04/26 04:50:53;;;;;;;14.50;7.22;;;;;;;7.94;100.00;97193.00;5443816;26;20069;-72
2024/04/26 04:53:19;;;;;;;12.85;7.80;;;;;;;7.56;100.00;97197.00;5427645;26;20079;-72
2024/04/26 04:55:44;;;;;;;27.10;10.80;;;;;;;7.60;100.00;97193.19;5469515;26;20429;-84
2024/04/26 04:58:10;;;;;;;18.60;9.73;;;;;;;7.86;100.00;97205.91;5490519;26;20012;-79
2024/04/26 05:00:36;;;;;;;15.20;8.40;;;;;;;8.00;100.00;97203.31;5483286;26;20336;-76
2024/04/26 05:03:01;;;;;;;17.05;9.32;;;;;;;8.13;100.00;97204.34;5487710;26;20013;-73
2024/04/26 05:05:27;;;;;;;15.98;7.93;;;;;;;8.29;100.00;97207.00;5494564;26;20070;-78
2024/04/26 05:07:53;;;;;;;13.80;8.07;;;;;;;8.42;100.00;97200.00;5493470;26;20228;-78
2024/04/26 05:10:18;;;;;;;14.57;8.95;;;;;;;8.41;100.00;97206.28;5492873;26;20516;-77
2024/04/26 05:12:44;;;;;;;17.60;9.05;;;;;;;8.40;100.00;97201.06;5493303;25;20008;-78
2024/04/26 05:15:09;;;;;;;15.25;8.63;;;;;;;8.44;100.00;97203.44;5521672;25;20021;-77
2024/04/26 05:17:35;;;;;;;20.83;9.85;;;;;;;8.44;100.00;97208.78;5496998;26;20068;-76
2024/04/26 05:20:12;;;;;;;16.75;8.68;;;;;;;8.65;100.00;97203.97;5448676;26;20012;-78
2024/04/26 05:22:38;;;;;;;21.45;10.40;;;;;;;8.73;100.00;97207.03;5435914;26;19989;-78
2024/04/26 05:25:04;;;;;;;14.50;9.35;;;;;;;8.73;100.00;97215.03;5524620;25;20017;-78
2024/04/26 05:27:29;;;;;;;20.83;10.38;;;;;;;8.79;100.00;97209.34;5453747;26;19994;-78
2024/04/26 05:29:55;;;;;;;18.33;10.77;;;;;;;8.91;100.00;97213.06;5514534;26;19993;-78
2024/04/26 05:32:27;;;;;;;17.65;10.50;;;;;;;8.91;100.00;97218.41;5480520;26;20069;-77
2024/04/26 05:34:52;;;;;;;21.98;10.73;;;;;;;8.83;100.00;97213.53;5527317;25;20058;-78
2024/04/26 05:37:18;;;;;;;17.30;9.80;;;;;;;9.00;100.00;97229.38;5454069;26;20441;-77
2024/04/26 05:39:44;;;;;;;15.38;9.23;;;;;;;9.08;100.00;97226.22;5492516;26;19998;-76
2024/04/26 05:42:09;;;;;;;21.38;9.82;;;;;;;9.10;100.00;97233.22;5508153;25;20005;-76
2024/04/26 05:44:35;;;;;;;16.40;9.30;;;;;;;9.12;100.00;97227.75;5492496;26;20062;-76
2024/04/26 05:47:01;;;;;;;14.82;9.05;;;;;;;9.28;100.00;97239.22;5520434;25;20070;-75
2024/04/26 05:49:26;;;;;;;15.60;9.20;;;;;;;9.04;100.00;97233.59;5492119;26;19994;-75
2024/04/26 05:51:52;;;;;;;15.82;9.77;;;;;;;8.72;100.00;97231.97;5482386;26;19998;-79
2024/04/26 05:54:17;;;;;;;19.77;10.32;;;;;;;8.46;100.00;97238.00;5475033;26;20006;-75
2024/04/26 05:56:43;;;;;;;21.38;10.63;;;;;;;8.43;100.00;97244.34;5463660;25;19990;-76
2024/04/26 05:59:09;;;;;;;18.90;10.65;;;;;;;8.63;100.00;97241.41;5450733;26;20316;-76
2024/04/26 06:01:34;;;;;;;21.70;8.80;;;;;;;8.71;100.00;97243.59;5435551;26;20002;-76
2024/04/26 06:04:00;;;;;;;36.05;19.30;;;;;;;8.84;100.00;97243.72;5463339;26;19997;-78
2024/04/26 06:06:26;;;;;;;15.82;9.30;;;;;;;9.12;100.00;97244.63;5494718;26;20324;-80
2024/04/26 06:08:52;;;;;;;16.83;7.80;;;;;;;9.43;100.00;97243.59;5469222;26;19994;-81
2024/04/26 06:11:18;;;;;;;17.00;7.82;;;;;;;9.65;100.00;97240.44;5498478;25;20018;-83
2024/04/26 06:13:44;;;;;;;24.48;10.57;;;;;;;10.09;100.00;97249.13;5469471;26;20095;-72
2024/04/26 06:16:09;;;;;;;15.60;7.97;;;;;;;10.18;100.00;97243.22;5426603;26;20010;-78
2024/04/26 06:18:35;;;;;;;17.33;9.07;;;;;;;10.29;100.00;97239.84;5456572;26;19994;-78
2024/04/26 06:21:01;;;;;;;17.48;9.70;;;;;;;10.32;100.00;97239.66;5491036;25;19998;-78
2024/04/26 06:23:27;;;;;;;21.90;8.80;;;;;;;10.73;100.00;97251.13;5463463;26;20382;-79
2024/04/26 06:25:53;;;;;;;16.75;8.38;;;;;;;11.19;100.00;97237.28;5455904;26;19994;-78
2024/04/26 06:28:19;;;;;;;12.98;8.10;;;;;;;11.47;100.00;97228.19;5438146;26;20025;-78
2024/04/26 06:30:47;;;;;;;13.50;8.20;;;;;;;11.71;100.00;97231.81;5497819;26;20005;-79
2024/04/26 06:33:13;;;;;;;14.95;7.95;;;;;;;11.99;100.00;97222.66;5474091;26;20005;-78
2024/04/26 06:35:43;;;;;;;10.60;6.80;;;;;;;12.69;100.00;97210.22;5475636;26;20009;-76
2024/04/26 06:38:10;;;;;;;9.45;6.15;;;;;;;13.39;100.00;97224.47;5457221;26;20383;-78
2024/04/26 06:40:38;;;;;;;9.60;6.20;;;;;;;14.23;100.00;97199.75;5489494;26;20121;-78
2024/04/26 06:43:04;;;;;;;10.93;6.22;;;;;;;14.41;100.00;97204.50;5457357;26;20089;-78
2024/04/26 06:45:30;;;;;;;14.13;7.38;;;;;;;13.65;100.00;97214.34;5492426;26;19994;-79
2024/04/26 06:47:55;;;;;;;10.70;7.40;;;;;;;13.19;100.00;97226.03;5461587;26;20001;-79
2024/04/26 06:50:21;;;;;;;12.27;7.38;;;;;;;12.87;100.00;97222.25;5478064;26;20058;-80
2024/04/26 06:52:47;;;;;;;14.45;6.97;;;;;;;13.58;100.00;97219.34;5473043;26;20018;-80
2024/04/26 06:55:12;;;;;;;10.23;7.32;;;;;;;14.13;100.00;97223.84;5442051;26;19998;-79
2024/04/26 06:57:38;;;;;;;12.52;7.60;;;;;;;14.80;100.00;97192.22;5476920;26;19994;-79
2024/04/26 07:00:07;;;;;;;12.70;8.00;;;;;;;16.26;100.00;97189.19;5553902;25;20430;-80
2024/04/26 07:02:33;;;;;;;12.75;8.40;;;;;;;16.98;100.00;97175.31;5460038;26;19998;-80
2024/04/26 07:04:58;;;;;;;16.20;9.48;;;;;;;18.24;100.00;97177.47;5455404;26;20355;-81
2024/04/26 07:07:24;;;;;;;11.77;6.82;;;;;;;19.34;95.03;97178.09;5516397;26;19998;-79
2024/04/26 07:09:49;;;;;;;11.32;7.68;;;;;;;20.81;86.68;97165.91;5444704;26;20005;-79
2024/04/26 07:12:23;;;;;;;10.27;8.00;;;;;;;21.36;75.19;97157.97;5479149;26;19998;-80
2024/04/26 07:14:48;;;;;;;21.38;11.98;;;;;;;22.08;68.14;97156.13;5481293;26;20452;-80
2024/04/26 07:17:14;;;;;;;12.35;7.32;;;;;;;23.47;59.50;97138.72;5484160;26;19994;-78
2024/04/26 07:19:41;;;;;;;11.10;7.05;;;;;;;23.80;56.63;97134.63;5454536;26;20434;-79
2024/04/26 07:22:07;;;;;;;10.13;6.57;;;;;;;23.62;56.13;97139.59;5486531;26;19998;-79
2024/04/26 07:24:33;;;;;;;13.30;7.28;;;;;;;23.85;56.06;97140.38;5497078;25;20008;-79
2024/04/26 07:26:58;;;;;;;9.88;7.28;;;;;;;24.03;53.90;97140.84;5465429;26;20010;-80
2024/04/26 07:29:25;;;;;;;13.88;8.18;;;;;;;23.59;55.05;97142.72;5424871;26;20065;-80
2024/04/26 07:31:51;;;;;;;14.35;8.10;;;;;;;24.10;54.64;97136.31;5432882;26;20027;-80
2024/04/26 07:34:17;;;;;;;21.13;7.60;;;;;;;24.09;54.06;97131.03;5461020;26;19994;-80
2024/04/26 07:36:42;;;;;;;14.10;7.72;;;;;;;23.16;57.05;97130.63;5490904;25;20494;-79
2024/04/26 07:39:08;;;;;;;15.10;9.20;;;;;;;23.85;55.14;97134.91;5486730;26;20001;-81
2024/04/26 07:41:34;;;;;;;22.48;10.93;;;;;;;22.26;63.40;97159.47;5454805;26;20004;-81
2024/04/26 07:44:00;;;;;;;14.52;10.95;;;;;;;21.90;67.83;97167.22;5504482;26;19994;-80
2024/04/26 07:46:26;;;;;;;15.90;10.65;;;;;;;21.82;69.46;97164.50;5480691;26;20437;-80
2024/04/26 07:48:52;;;;;;;16.75;10.50;;;;;;;22.07;71.61;97163.44;5424624;26;19994;-80
2024/04/26 07:51:19;;;;;;;24.10;13.05;;;;;;;23.19;64.45;97160.28;5448054;26;20056;-80
2024/04/26 07:53:44;;;;;;;15.57;10.98;;;;;;;23.28;62.44;97150.97;5486899;26;20002;-80
2024/04/26 07:56:10;;;;;;;16.45;9.60;;;;;;;22.02;64.97;97163.13;5484903;26;20013;-80
2024/04/26 07:58:35;;;;;;;13.15;9.05;;;;;;;23.81;60.04;97152.69;5494442;26;20334;-81
2024/04/26 08:01:01;;;;;;;17.92;7.95;;;;;;;23.67;57.87;97148.06;5455131;26;19994;-81
2024/04/26 08:03:26;;;;;;;11.38;7.80;;;;;;;24.35;56.40;97152.44;5454984;26;20054;-80
2024/04/26 08:05:54;;;;;;;11.23;7.55;;;;;;;24.49;53.21;97143.38;5450516;26;20507;-81
2024/04/26 08:08:20;;;;;;;8.75;6.25;;;;;;;24.18;52.28;97146.31;5536681;25;19993;-80
2024/04/26 08:10:46;;;;;;;10.10;6.97;;;;;;;24.45;55.03;97144.81;5460091;26;20433;-82
2024/04/26 08:13:12;;;;;;;8.93;6.35;;;;;;;24.91;51.65;97135.28;5467898;26;20018;-83
2024/04/26 08:15:37;;;;;;;8.98;6.25;;;;;;;25.48;49.44;97137.06;5481524;26;19997;-83
2024/04/26 08:18:04;;;;;;;9.90;6.10;;;;;;;25.90;48.01;97126.03;5552550;25;20092;-82
2024/04/26 08:20:30;;;;;;;10.18;7.30;;;;;;;25.22;47.46;97121.25;5423650;26;19998;-84
2024/04/26 08:22:55;;;;;;;12.60;7.45;;;;;;;25.01;47.50;97135.78;5434887;26;20012;-82
2024/04/26 08:25:21;;;;;;;10.25;7.10;;;;;;;25.16;48.51;97133.81;5424240;26;20013;-82
2024/04/26 08:27:48;;;;;;;10.00;6.10;;;;;;;23.81;52.16;97144.50;5484406;26;19991;-76
2024/04/26 08:30:14;;;;;;;7.47;5.82;;;;;;;24.05;53.25;97141.53;5426994;26;20371;-76
2024/04/26 08:32:40;;;;;;;7.60;5.35;;;;;;;24.55;52.00;97148.91;5483970;26;20006;-79
2024/04/26 08:35:06;;;;;;;8.30;5.85;;;;;;;24.26;55.90;97146.25;5514081;26;20417;-78
2024/04/26 08:37:31;;;;;;;8.70;5.90;;;;;;;23.97;50.01;97136.13;5471242;26;19998;-79
2024/04/26 08:39:57;;;;;;;13.23;8.40;;;;;;;24.14;54.51;97137.69;5469951;26;20374;-80
2024/04/26 08:42:23;;;;;;;8.13;5.50;;;;;;;22.82;53.87;97141.97;5476285;26;19990;-76
2024/04/26 08:44:52;;;;;;;10.13;5.72;;;;;;;20.77;65.60;97163.66;5487922;26;20001;-75
2024/04/26 08:47:18;;;;;;;7.38;5.10;;;;;;;23.34;55.12;97139.31;5516012;26;20041;-75
2024/04/26 08:49:46;;;;;;;8.18;4.57;;;;;;;24.07;50.78;97146.78;5421549;26;19994;-75
2024/04/26 08:52:15;;;;;;;6.65;4.25;;;;;;;24.76;50.23;97138.00;5520578;25;20006;-71
2024/04/26 08:54:40;;;;;;;6.63;4.18;;;;;;;24.92;47.75;97130.66;5489281;26;19994;-75
2024/04/26 08:57:07;;;;;;;6.13;3.65;;;;;;;25.14;43.67;97119.50;5489417;26;20012;-74
2024/04/26 08:59:38;;;;;;;6.18;4.10;;;;;;;25.76;46.70;97127.84;5489481;26;20005;-76
2024/04/26 09:02:07;;;;;;;5.90;3.90;;;;;;;26.47;44.25;97122.13;5458539;25;20266;-76
2024/04/26 09:04:32;;;;;;;11.38;4.20;;;;;;;27.25;44.83;97116.91;5470106;26;20243;-76
2024/04/26 09:06:58;;;;;;;9.70;6.68;;;;;;;27.43;44.94;97119.91;5484857;26;20505;-77
2024/04/26 09:09:23;;;;;;;5.80;3.92;;;;;;;27.45;42.53;97101.28;5423212;26;20348;-76
2024/04/26 09:11:49;;;;;;;5.05;3.47;;;;;;;26.03;43.16;97104.16;5453468;26;20070;-74
2024/04/26 09:14:17;;;;;;;8.10;3.83;;;;;;;26.62;42.03;97109.09;5484739;26;20329;-81
2024/04/26 09:16:46;;;;;;;7.78;3.58;;;;;;;27.02;40.19;97091.72;5499650;26;20076;-82
2024/04/26 09:19:12;;;;;;;4.53;3.40;;;;;;;26.93;39.58;97088.31;5427973;26;20007;-82
2024/04/26 09:21:38;;;;;;;3.22;2.80;;;;;;;27.40;35.65;97075.47;5444996;26;20321;-82
2024/04/26 09:24:04;;;;;;;3.40;3.10;;;;;;;26.56;37.20;97077.84;5469822;26;19993;-82
2024/04/26 09:26:35;;;;;;;8.90;3.00;;;;;;;26.77;40.29;97093.31;5426090;26;19998;-88
2024/04/26 09:29:00;;;;;;;3.78;3.28;;;;;;;26.49;38.52;97070.66;5506406;25;20009;-85
2024/04/26 09:31:26;;;;;;;3.28;2.83;;;;;;;26.46;35.24;97063.66;5481287;26;20004;-86
2024/04/26 09:33:55;;;;;;;6.68;3.30;;;;;;;26.65;36.04;97073.03;5504910;25;20026;-86
2024/04/26 09:36:27;;;;;;;9.02;3.25;;;;;;;26.81;38.03;97078.16;5444749;26;20065;-85
2024/04/26 09:38:54;;;;;;;5.13;2.83;;;;;;;27.19;36.24;97073.78;5501426;26;19998;-87
2024/04/26 09:41:21;;;;;;;3.90;2.47;;;;;;;27.61;32.22;97055.19;5462661;26;19997;-87
2024/04/26 09:43:48;;;;;;;2.78;2.50;;;;;;;27.78;32.96;97057.25;5486047;26;20412;-84
2024/04/26 09:46:17;;;;;;;3.33;2.80;;;;;;;27.63;33.16;97059.41;5448224;26;20005;-85
2024/04/26 09:48:42;;;;;;;4.40;3.08;;;;;;;28.45;33.32;97062.38;5521343;25;20021;-85
2024/04/26 09:51:11;;;;;;;5.55;2.85;;;;;;;28.36;32.78;97055.41;5442222;26;20009;-85
2024/04/26 09:53:41;;;;;;;3.42;2.83;;;;;;;28.09;32.81;97056.56;5472282;26;20017;-87
2024/04/26 09:56:06;;;;;;;6.03;2.90;;;;;;;27.27;34.84;97048.00;5421931;26;20009;-86
2024/04/26 09:58:32;;;;;;;5.82;3.17;;;;;;;28.24;34.90;97065.41;5473229;25;20033;-88
2024/04/26 10:00:58;;;;;;;4.22;2.80;;;;;;;28.66;32.20;97043.88;5442178;26;19997;-86
2024/04/26 10:03:24;;;;;;;3.22;2.45;;;;;;;28.00;33.64;97057.84;5497911;26;20016;-85
2024/04/26 10:06:01;;;;;;;4.93;2.95;;;;;;;28.51;32.51;97044.97;5482652;26;20009;-86
2024/04/26 10:08:34;;;;;;;2.95;2.50;;;;;;;27.34;32.16;97037.84;5486224;26;19998;-86
2024/04/26 10:11:09;;;;;;;5.72;2.90;;;;;;;28.31;33.44;97046.97;5524052;25;19993;-87
2024/04/26 10:13:56;;;;;;;3.22;2.67;;;;;;;27.54;33.33;97049.69;5470387;26;19994;-86
2024/04/26 10:16:32;;;;;;;2.92;2.60;;;;;;;27.71;32.39;97037.22;5454829;26;19993;-87
2024/04/26 10:18:58;;;;;;;2.88;2.50;;;;;;;28.84;31.74;97035.69;5461693;26;20021;-87
2024/04/26 10:21:25;;;;;;;7.22;2.72;;;;;;;29.43;31.35;97046.28;5466093;26;20002;-86
2024/04/26 10:23:57;;;;;;;4.15;2.60;;;;;;;29.28;31.99;97037.53;5463628;26;19991;-87
2024/04/26 10:26:23;;;;;;;5.45;2.92;;;;;;;27.62;33.06;97037.66;5441359;26;20014;-87
2024/04/26 10:28:49;;;;;;;14.27;3.90;;;;;;;28.05;33.24;97036.09;5456683;26;19993;-86
2024/04/26 10:31:16;;;;;;;6.10;2.50;;;;;;;28.51;32.29;97036.72;5552653;25;20029;-87
2024/04/26 10:33:41;;;;;;;3.00;2.40;;;;;;;29.73;30.84;97038.16;5478490;25;19989;-87
2024/04/26 10:36:09;;;;;;;5.78;2.50;;;;;;;29.26;31.68;97029.47;5443461;26;20070;-85
2024/04/26 10:38:45;;;;;;;16.90;2.88;;;;;;;27.17;33.14;97028.34;5472381;26;20429;-86
2024/04/26 10:41:15;;;;;;;3.28;2.53;;;;;;;27.00;32.75;97024.34;5493078;26;20069;-86
2024/04/26 10:43:41;;;;;;;4.07;2.78;;;;;;;24.77;35.40;97035.75;5499651;26;20306;-86
2024/04/26 10:46:07;;;;;;;3.38;2.38;;;;;;;23.14;37.80;97037.16;5446242;26;20045;-85
2024/04/26 10:48:34;;;;;;;6.75;3.50;;;;;;;23.94;37.44;97046.34;5432462;26;20006;-86
2024/04/26 10:51:05;;;;;;;4.35;3.00;;;;;;;24.96;35.97;97041.63;5463464;26;20371;-85
2024/04/26 10:53:34;;;;;;;3.10;2.25;;;;;;;24.06;36.37;97038.47;5457302;26;19994;-83
2024/04/26 10:56:00;;;;;;;3.20;2.33;;;;;;;23.72;37.95;97050.03;5465690;26;20022;-85
2024/04/26 10:58:39;;;;;;;4.25;2.42;;;;;;;22.52;38.91;97052.81;5500529;25;20445;-85
2024/04/26 11:01:13;;;;;;;3.58;2.65;;;;;;;22.97;38.75;97044.66;5452192;26;20073;-85
2024/04/26 11:03:39;;;;;;;3.42;2.70;;;;;;;22.41;38.36;97036.88;5465849;26;20367;-85
2024/04/26 11:06:05;;;;;;;2.97;2.58;;;;;;;21.59;40.17;97049.22;5478170;26;20158;-85
2024/04/26 11:08:30;;;;;;;5.82;2.47;;;;;;;21.68;41.64;97056.34;5468173;26;20053;-85
2024/04/26 11:11:06;;;;;;;3.95;2.40;;;;;;;21.04;42.27;97060.03;5495633;26;19994;-86
2024/04/26 11:13:34;;;;;;;4.75;2.67;;;;;;;20.42;44.00;97059.69;5443894;26;19994;-85
2024/04/26 11:16:00;;;;;;;8.55;2.40;;;;;;;20.65;43.64;97057.16;5428438;26;20061;-83
2024/04/26 11:18:25;;;;;;;4.10;2.47;;;;;;;20.60;42.05;97048.66;5458947;26;19998;-85
2024/04/26 11:20:51;;;;;;;3.15;2.40;;;;;;;20.44;43.18;97064.94;5456524;26;19998;-84
2024/04/26 11:23:17;;;;;;;3.03;2.55;;;;;;;20.43;43.31;97058.66;5458804;26;20070;-83
2024/04/26 11:25:42;;;;;;;3.55;2.83;;;;;;;20.45;43.50;97063.94;5459258;26;20080;-84
2024/04/26 11:28:08;;;;;;;5.60;3.00;;;;;;;19.72;43.87;97068.28;5428281;26;20434;-84